sensor_id;sensor_type;location;lat;lon;timestamp;temperature;humidity
9157;DHT22;4613;48.392;9.998;2022-10-16T00:00:01;14.90;99.90
9157;DHT22;4613;48.392;9.998;2022-10-16T00:02:50;14.90;99.90
9157;DHT22;4613;48.392;9.998;2022-10-16T00:05:42;14.80;99.90
9157;DHT22;4613;48.392;9.998;2022-10-16T00:08:31;14.90;99.90
9157;DHT22;4613;48.392;9.998;2022-10-16T00:11:23;14.80;99.90
9157;DHT22;4613;48.392;9.998;2022-10-16T00:14:15;14.80;99.90
9157;DHT22;4613;48.392;9.998;2022-10-16T00:17:04;14.70;99.90
9157;DHT22;4613;48.392;9.998;2022-10-16T00:19:54;14.70;99.90
9157;DHT22;4613;48.392;9.998;2022-10-16T00:22:43;14.60;99.90
9157;DHT22;4613;48.392;9.998;2022-10-16T00:25:32;14.20;99.90
9157;DHT22;4613;48.392;9.998;2022-10-16T00:28:22;14.20;99.90
9157;DHT22;4613;48.392;9.998;2022-10-16T00:31:13;14.00;99.90
9157;DHT22;4613;48.392;9.998;2022-10-16T00:34:03;14.10;99.90
9157;DHT22;4613;48.392;9.998;2022-10-16T00:36:52;14.00;99.90
9157;DHT22;4613;48.392;9.998;2022-10-16T00:39:43;14.30;99.90
9157;DHT22;4613;48.392;9.998;2022-10-16T00:42:39;14.20;99.90
9157;DHT22;4613;48.392;9.998;2022-10-16T00:45:28;14.10;99.90
9157;DHT22;4613;48.392;9.998;2022-10-16T00:48:18;14.10;99.90
9157;DHT22;4613;48.392;9.998;2022-10-16T00:51:07;14.00;99.90
9157;DHT22;4613;48.392;9.998;2022-10-16T00:53:57;13.90;99.90
9157;DHT22;4613;48.392;9.998;2022-10-16T00:56:47;14.20;99.90
9157;DHT22;4613;48.392;9.998;2022-10-16T00:59:39;14.40;99.90
9157;DHT22;4613;48.392;9.998;2022-10-16T01:02:28;14.40;99.90
9157;DHT22;4613;48.392;9.998;2022-10-16T01:05:17;14.40;99.90
9157;DHT22;4613;48.392;9.998;2022-10-16T01:08:17;14.40;99.90
9157;DHT22;4613;48.392;9.998;2022-10-16T01:11:34;14.50;99.90
9157;DHT22;4613;48.392;9.998;2022-10-16T01:14:40;14.50;99.90
9157;DHT22;4613;48.392;9.998;2022-10-16T01:17:38;14.50;99.90
9157;DHT22;4613;48.392;9.998;2022-10-16T01:20:53;14.40;99.90
9157;DHT22;4613;48.392;9.998;2022-10-16T01:24:06;14.30;99.90
9157;DHT22;4613;48.392;9.998;2022-10-16T01:30:07;14.50;99.90
9157;DHT22;4613;48.392;9.998;2022-10-16T01:35:58;14.50;99.90
9157;DHT22;4613;48.392;9.998;2022-10-16T01:38:51;14.50;99.90
9157;DHT22;4613;48.392;9.998;2022-10-16T01:41:48;14.50;99.90
9157;DHT22;4613;48.392;9.998;2022-10-16T01:44:39;14.60;99.90
9157;DHT22;4613;48.392;9.998;2022-10-16T01:47:30;14.60;99.90
9157;DHT22;4613;48.392;9.998;2022-10-16T01:50:20;14.60;99.90
9157;DHT22;4613;48.392;9.998;2022-10-16T01:53:12;14.60;99.90
9157;DHT22;4613;48.392;9.998;2022-10-16T01:56:06;14.60;99.90
9157;DHT22;4613;48.392;9.998;2022-10-16T01:59:04;14.60;99.90
9157;DHT22;4613;48.392;9.998;2022-10-16T02:01:58;14.50;99.90
9157;DHT22;4613;48.392;9.998;2022-10-16T02:04:53;14.50;99.90
9157;DHT22;4613;48.392;9.998;2022-10-16T02:07:43;14.50;99.90
9157;DHT22;4613;48.392;9.998;2022-10-16T02:10:35;14.50;99.90
9157;DHT22;4613;48.392;9.998;2022-10-16T02:13:35;14.50;99.90
9157;DHT22;4613;48.392;9.998;2022-10-16T02:16:38;14.40;99.90
9157;DHT22;4613;48.392;9.998;2022-10-16T02:19:27;14.20;99.90
9157;DHT22;4613;48.392;9.998;2022-10-16T02:22:39;14.00;99.90
9157;DHT22;4613;48.392;9.998;2022-10-16T02:25:32;14.00;99.90
9157;DHT22;4613;48.392;9.998;2022-10-16T02:28:28;14.10;99.90
9157;DHT22;4613;48.392;9.998;2022-10-16T02:31:25;14.20;99.90
9157;DHT22;4613;48.392;9.998;2022-10-16T02:34:19;14.20;99.90
9157;DHT22;4613;48.392;9.998;2022-10-16T02:37:11;14.20;99.90
9157;DHT22;4613;48.392;9.998;2022-10-16T02:40:07;14.40;99.90
9157;DHT22;4613;48.392;9.998;2022-10-16T02:42:57;14.50;99.90
9157;DHT22;4613;48.392;9.998;2022-10-16T02:45:46;14.40;99.90
9157;DHT22;4613;48.392;9.998;2022-10-16T02:48:35;14.30;99.90
9157;DHT22;4613;48.392;9.998;2022-10-16T02:51:25;14.30;99.90
9157;DHT22;4613;48.392;9.998;2022-10-16T02:54:14;14.30;99.90
9157;DHT22;4613;48.392;9.998;2022-10-16T02:57:04;14.10;99.90
9157;DHT22;4613;48.392;9.998;2022-10-16T02:59:54;14.00;99.90
9157;DHT22;4613;48.392;9.998;2022-10-16T03:02:44;14.10;99.90
9157;DHT22;4613;48.392;9.998;2022-10-16T03:05:33;14.00;99.90
9157;DHT22;4613;48.392;9.998;2022-10-16T03:08:22;14.10;99.90
9157;DHT22;4613;48.392;9.998;2022-10-16T03:11:13;14.20;99.90
9157;DHT22;4613;48.392;9.998;2022-10-16T03:14:03;14.30;99.90
9157;DHT22;4613;48.392;9.998;2022-10-16T03:16:53;14.30;99.90
9157;DHT22;4613;48.392;9.998;2022-10-16T03:19:42;14.10;99.90
9157;DHT22;4613;48.392;9.998;2022-10-16T03:22:31;13.80;99.90
9157;DHT22;4613;48.392;9.998;2022-10-16T03:25:20;13.90;99.90
9157;DHT22;4613;48.392;9.998;2022-10-16T03:28:11;14.10;99.90
9157;DHT22;4613;48.392;9.998;2022-10-16T03:31:00;14.10;99.90
9157;DHT22;4613;48.392;9.998;2022-10-16T03:33:50;13.90;99.90
9157;DHT22;4613;48.392;9.998;2022-10-16T03:36:40;13.70;99.90
9157;DHT22;4613;48.392;9.998;2022-10-16T03:39:29;13.90;99.90
9157;DHT22;4613;48.392;9.998;2022-10-16T03:42:19;14.10;99.90
9157;DHT22;4613;48.392;9.998;2022-10-16T03:45:09;14.10;99.90
9157;DHT22;4613;48.392;9.998;2022-10-16T03:47:59;14.00;99.90
9157;DHT22;4613;48.392;9.998;2022-10-16T03:50:48;13.90;99.90
9157;DHT22;4613;48.392;9.998;2022-10-16T03:53:37;14.10;99.90
9157;DHT22;4613;48.392;9.998;2022-10-16T03:56:27;14.20;99.90
9157;DHT22;4613;48.392;9.998;2022-10-16T03:59:16;14.10;99.90
9157;DHT22;4613;48.392;9.998;2022-10-16T04:02:06;14.10;99.90
9157;DHT22;4613;48.392;9.998;2022-10-16T04:04:55;14.10;99.90
9157;DHT22;4613;48.392;9.998;2022-10-16T04:07:45;14.20;99.90
9157;DHT22;4613;48.392;9.998;2022-10-16T04:10:36;14.30;99.90
9157;DHT22;4613;48.392;9.998;2022-10-16T04:13:25;14.10;99.90
9157;DHT22;4613;48.392;9.998;2022-10-16T04:16:14;14.00;99.90
9157;DHT22;4613;48.392;9.998;2022-10-16T04:19:03;13.80;99.90
9157;DHT22;4613;48.392;9.998;2022-10-16T04:21:53;13.90;99.90
9157;DHT22;4613;48.392;9.998;2022-10-16T04:24:42;13.80;99.90
9157;DHT22;4613;48.392;9.998;2022-10-16T04:27:31;14.00;99.90
9157;DHT22;4613;48.392;9.998;2022-10-16T04:30:21;14.00;99.90
9157;DHT22;4613;48.392;9.998;2022-10-16T04:33:13;14.00;99.90
9157;DHT22;4613;48.392;9.998;2022-10-16T04:36:03;14.00;99.90
9157;DHT22;4613;48.392;9.998;2022-10-16T04:38:52;14.00;99.90
9157;DHT22;4613;48.392;9.998;2022-10-16T04:41:42;14.00;99.90
9157;DHT22;4613;48.392;9.998;2022-10-16T04:44:32;13.90;99.90
9157;DHT22;4613;48.392;9.998;2022-10-16T04:47:21;14.00;99.90
9157;DHT22;4613;48.392;9.998;2022-10-16T04:50:10;14.00;99.90
9157;DHT22;4613;48.392;9.998;2022-10-16T04:52:59;14.00;99.90
9157;DHT22;4613;48.392;9.998;2022-10-16T04:55:49;13.90;99.90
9157;DHT22;4613;48.392;9.998;2022-10-16T04:58:39;13.90;99.90
9157;DHT22;4613;48.392;9.998;2022-10-16T05:01:30;14.00;99.90
9157;DHT22;4613;48.392;9.998;2022-10-16T05:04:19;13.70;99.90
9157;DHT22;4613;48.392;9.998;2022-10-16T05:07:08;13.70;99.90
9157;DHT22;4613;48.392;9.998;2022-10-16T05:09:58;13.80;99.90
9157;DHT22;4613;48.392;9.998;2022-10-16T05:12:47;13.90;99.90
9157;DHT22;4613;48.392;9.998;2022-10-16T05:15:37;13.90;99.90
9157;DHT22;4613;48.392;9.998;2022-10-16T05:18:30;13.90;99.90
9157;DHT22;4613;48.392;9.998;2022-10-16T05:21:23;13.90;99.90
9157;DHT22;4613;48.392;9.998;2022-10-16T05:24:12;13.90;99.90
9157;DHT22;4613;48.392;9.998;2022-10-16T05:27:01;13.80;99.90
9157;DHT22;4613;48.392;9.998;2022-10-16T05:29:51;13.30;99.90
9157;DHT22;4613;48.392;9.998;2022-10-16T05:32:40;13.30;99.90
9157;DHT22;4613;48.392;9.998;2022-10-16T05:35:29;13.50;99.90
9157;DHT22;4613;48.392;9.998;2022-10-16T05:38:19;13.60;99.90
9157;DHT22;4613;48.392;9.998;2022-10-16T05:41:08;13.70;99.90
9157;DHT22;4613;48.392;9.998;2022-10-16T05:43:58;13.80;99.90
9157;DHT22;4613;48.392;9.998;2022-10-16T05:46:47;13.60;99.90
9157;DHT22;4613;48.392;9.998;2022-10-16T05:49:36;13.60;99.90
9157;DHT22;4613;48.392;9.998;2022-10-16T05:52:27;13.70;99.90
9157;DHT22;4613;48.392;9.998;2022-10-16T05:55:17;13.90;99.90
9157;DHT22;4613;48.392;9.998;2022-10-16T05:58:06;13.90;99.90
9157;DHT22;4613;48.392;9.998;2022-10-16T06:01:04;13.80;99.90
9157;DHT22;4613;48.392;9.998;2022-10-16T06:03:54;13.70;99.90
9157;DHT22;4613;48.392;9.998;2022-10-16T06:06:43;13.70;99.90
9157;DHT22;4613;48.392;9.998;2022-10-16T06:09:32;13.80;99.90
9157;DHT22;4613;48.392;9.998;2022-10-16T06:12:22;13.80;99.90
9157;DHT22;4613;48.392;9.998;2022-10-16T06:15:11;13.80;99.90
9157;DHT22;4613;48.392;9.998;2022-10-16T06:18:00;13.60;99.90
9157;DHT22;4613;48.392;9.998;2022-10-16T06:20:50;13.60;99.90
9157;DHT22;4613;48.392;9.998;2022-10-16T06:23:39;13.80;99.90
9157;DHT22;4613;48.392;9.998;2022-10-16T06:26:30;13.80;99.90
9157;DHT22;4613;48.392;9.998;2022-10-16T06:29:19;13.90;99.90
9157;DHT22;4613;48.392;9.998;2022-10-16T06:32:09;13.80;99.90
9157;DHT22;4613;48.392;9.998;2022-10-16T06:34:59;13.60;99.90
9157;DHT22;4613;48.392;9.998;2022-10-16T06:37:48;13.80;99.90
9157;DHT22;4613;48.392;9.998;2022-10-16T06:40:38;13.90;99.90
9157;DHT22;4613;48.392;9.998;2022-10-16T06:43:29;14.00;99.90
9157;DHT22;4613;48.392;9.998;2022-10-16T06:46:24;14.00;99.90
9157;DHT22;4613;48.392;9.998;2022-10-16T06:49:14;14.00;99.90
9157;DHT22;4613;48.392;9.998;2022-10-16T06:52:10;14.00;99.90
9157;DHT22;4613;48.392;9.998;2022-10-16T06:54:59;14.00;99.90
9157;DHT22;4613;48.392;9.998;2022-10-16T06:57:48;14.00;99.90
9157;DHT22;4613;48.392;9.998;2022-10-16T07:00:37;14.10;99.90
9157;DHT22;4613;48.392;9.998;2022-10-16T07:03:27;14.20;99.90
9157;DHT22;4613;48.392;9.998;2022-10-16T07:06:19;14.10;99.90
9157;DHT22;4613;48.392;9.998;2022-10-16T07:09:10;14.10;99.90
9157;DHT22;4613;48.392;9.998;2022-10-16T07:12:00;14.00;99.90
9157;DHT22;4613;48.392;9.998;2022-10-16T07:14:49;14.10;99.90
9157;DHT22;4613;48.392;9.998;2022-10-16T07:17:41;14.00;99.90
9157;DHT22;4613;48.392;9.998;2022-10-16T07:20:30;13.90;99.90
9157;DHT22;4613;48.392;9.998;2022-10-16T07:23:20;14.00;99.90
9157;DHT22;4613;48.392;9.998;2022-10-16T07:26:10;13.90;99.90
9157;DHT22;4613;48.392;9.998;2022-10-16T07:29:01;13.90;99.90
9157;DHT22;4613;48.392;9.998;2022-10-16T07:31:50;14.00;99.90
9157;DHT22;4613;48.392;9.998;2022-10-16T07:34:42;14.20;99.90
9157;DHT22;4613;48.392;9.998;2022-10-16T07:37:32;14.50;99.90
9157;DHT22;4613;48.392;9.998;2022-10-16T07:40:21;14.70;99.90
9157;DHT22;4613;48.392;9.998;2022-10-16T07:43:11;14.80;99.90
9157;DHT22;4613;48.392;9.998;2022-10-16T07:46:01;14.80;99.90
9157;DHT22;4613;48.392;9.998;2022-10-16T07:48:52;14.80;99.90
9157;DHT22;4613;48.392;9.998;2022-10-16T07:51:42;14.80;99.90
9157;DHT22;4613;48.392;9.998;2022-10-16T07:54:32;14.80;99.90
9157;DHT22;4613;48.392;9.998;2022-10-16T07:57:23;14.60;99.90
9157;DHT22;4613;48.392;9.998;2022-10-16T08:00:12;14.70;99.90
9157;DHT22;4613;48.392;9.998;2022-10-16T08:03:03;14.70;99.90
9157;DHT22;4613;48.392;9.998;2022-10-16T08:05:54;14.70;99.90
9157;DHT22;4613;48.392;9.998;2022-10-16T08:08:45;14.90;99.90
9157;DHT22;4613;48.392;9.998;2022-10-16T08:11:35;14.90;99.90
9157;DHT22;4613;48.392;9.998;2022-10-16T08:14:25;14.80;99.90
9157;DHT22;4613;48.392;9.998;2022-10-16T08:17:15;14.90;99.90
9157;DHT22;4613;48.392;9.998;2022-10-16T08:20:05;14.70;99.90
9157;DHT22;4613;48.392;9.998;2022-10-16T08:22:55;14.70;99.90
9157;DHT22;4613;48.392;9.998;2022-10-16T08:25:44;14.70;99.90
9157;DHT22;4613;48.392;9.998;2022-10-16T08:28:34;14.70;99.90
9157;DHT22;4613;48.392;9.998;2022-10-16T08:31:25;15.00;99.90
9157;DHT22;4613;48.392;9.998;2022-10-16T08:34:16;15.00;99.90
9157;DHT22;4613;48.392;9.998;2022-10-16T08:37:05;15.10;99.90
9157;DHT22;4613;48.392;9.998;2022-10-16T08:39:57;15.10;99.90
9157;DHT22;4613;48.392;9.998;2022-10-16T08:46:16;15.10;99.90
9157;DHT22;4613;48.392;9.998;2022-10-16T08:49:11;15.10;99.90
9157;DHT22;4613;48.392;9.998;2022-10-16T08:52:11;15.20;99.90
9157;DHT22;4613;48.392;9.998;2022-10-16T08:55:04;15.30;99.90
9157;DHT22;4613;48.392;9.998;2022-10-16T08:57:54;15.40;99.90
9157;DHT22;4613;48.392;9.998;2022-10-16T09:00:47;15.50;99.90
9157;DHT22;4613;48.392;9.998;2022-10-16T09:04:37;15.30;99.90
9157;DHT22;4613;48.392;9.998;2022-10-16T09:07:09;15.10;99.90
9157;DHT22;4613;48.392;9.998;2022-10-16T09:10:16;15.30;99.90
9157;DHT22;4613;48.392;9.998;2022-10-16T09:13:33;15.60;99.90
9157;DHT22;4613;48.392;9.998;2022-10-16T09:16:30;15.50;99.90
9157;DHT22;4613;48.392;9.998;2022-10-16T09:19:38;15.60;99.90
9157;DHT22;4613;48.392;9.998;2022-10-16T09:22:31;15.70;99.90
9157;DHT22;4613;48.392;9.998;2022-10-16T09:25:21;15.70;99.90
9157;DHT22;4613;48.392;9.998;2022-10-16T09:28:11;15.60;99.90
9157;DHT22;4613;48.392;9.998;2022-10-16T09:31:01;15.60;99.90
9157;DHT22;4613;48.392;9.998;2022-10-16T09:33:55;15.80;99.90
9157;DHT22;4613;48.392;9.998;2022-10-16T09:36:49;15.80;99.90
9157;DHT22;4613;48.392;9.998;2022-10-16T09:39:53;15.90;99.90
9157;DHT22;4613;48.392;9.998;2022-10-16T09:42:43;16.20;99.90
9157;DHT22;4613;48.392;9.998;2022-10-16T09:45:32;16.30;99.90
9157;DHT22;4613;48.392;9.998;2022-10-16T09:48:24;16.30;99.90
9157;DHT22;4613;48.392;9.998;2022-10-16T09:51:29;16.40;99.90
9157;DHT22;4613;48.392;9.998;2022-10-16T09:54:21;16.60;99.90
9157;DHT22;4613;48.392;9.998;2022-10-16T09:57:13;16.70;99.90
9157;DHT22;4613;48.392;9.998;2022-10-16T10:00:08;16.70;99.90
9157;DHT22;4613;48.392;9.998;2022-10-16T10:02:57;17.20;99.90
9157;DHT22;4613;48.392;9.998;2022-10-16T10:05:48;17.40;99.90
9157;DHT22;4613;48.392;9.998;2022-10-16T10:08:39;17.20;99.90
9157;DHT22;4613;48.392;9.998;2022-10-16T10:12:05;17.10;99.90
9157;DHT22;4613;48.392;9.998;2022-10-16T10:15:10;17.10;99.90
9157;DHT22;4613;48.392;9.998;2022-10-16T10:18:15;17.10;99.90
9157;DHT22;4613;48.392;9.998;2022-10-16T10:21:14;17.20;99.90
9157;DHT22;4613;48.392;9.998;2022-10-16T10:24:12;17.20;99.90
9157;DHT22;4613;48.392;9.998;2022-10-16T10:27:10;17.20;99.90
9157;DHT22;4613;48.392;9.998;2022-10-16T10:30:28;17.30;99.90
9157;DHT22;4613;48.392;9.998;2022-10-16T10:33:42;17.50;99.90
9157;DHT22;4613;48.392;9.998;2022-10-16T10:36:39;17.40;99.90
9157;DHT22;4613;48.392;9.998;2022-10-16T10:39:36;17.50;99.90
9157;DHT22;4613;48.392;9.998;2022-10-16T10:42:53;17.40;99.90
9157;DHT22;4613;48.392;9.998;2022-10-16T10:45:48;17.60;99.90
9157;DHT22;4613;48.392;9.998;2022-10-16T10:57:59;17.50;99.90
9157;DHT22;4613;48.392;9.998;2022-10-16T11:07:33;17.60;99.90
9157;DHT22;4613;48.392;9.998;2022-10-16T11:11:06;17.60;99.90
9157;DHT22;4613;48.392;9.998;2022-10-16T11:14:09;17.60;99.90
9157;DHT22;4613;48.392;9.998;2022-10-16T11:26:26;18.10;99.90
9157;DHT22;4613;48.392;9.998;2022-10-16T11:29:24;18.20;99.90
9157;DHT22;4613;48.392;9.998;2022-10-16T11:32:22;18.50;99.90
9157;DHT22;4613;48.392;9.998;2022-10-16T11:38:33;18.60;99.90
9157;DHT22;4613;48.392;9.998;2022-10-16T11:41:34;18.90;99.90
9157;DHT22;4613;48.392;9.998;2022-10-16T11:47:43;19.40;99.90
9157;DHT22;4613;48.392;9.998;2022-10-16T11:50:52;19.30;99.90
9157;DHT22;4613;48.392;9.998;2022-10-16T11:53:49;20.70;99.90
9157;DHT22;4613;48.392;9.998;2022-10-16T11:56:43;21.00;99.90
9157;DHT22;4613;48.392;9.998;2022-10-16T12:02:58;20.90;99.90
9157;DHT22;4613;48.392;9.998;2022-10-16T12:06:02;20.70;99.90
9157;DHT22;4613;48.392;9.998;2022-10-16T12:08:59;20.90;99.90
9157;DHT22;4613;48.392;9.998;2022-10-16T12:11:48;21.10;99.90
9157;DHT22;4613;48.392;9.998;2022-10-16T12:14:39;21.50;99.90
9157;DHT22;4613;48.392;9.998;2022-10-16T12:17:37;22.00;99.90
9157;DHT22;4613;48.392;9.998;2022-10-16T12:20:31;22.10;99.90
9157;DHT22;4613;48.392;9.998;2022-10-16T12:23:22;22.10;99.90
9157;DHT22;4613;48.392;9.998;2022-10-16T12:26:13;22.30;99.90
9157;DHT22;4613;48.392;9.998;2022-10-16T12:32:36;22.00;99.90
9157;DHT22;4613;48.392;9.998;2022-10-16T12:35:35;21.80;99.90
9157;DHT22;4613;48.392;9.998;2022-10-16T12:38:50;22.10;99.90
9157;DHT22;4613;48.392;9.998;2022-10-16T12:41:39;22.30;99.90
9157;DHT22;4613;48.392;9.998;2022-10-16T12:44:33;22.20;99.90
9157;DHT22;4613;48.392;9.998;2022-10-16T12:50:43;21.40;99.90
9157;DHT22;4613;48.392;9.998;2022-10-16T12:53:33;21.20;99.90
9157;DHT22;4613;48.392;9.998;2022-10-16T12:56:39;21.50;99.90
9157;DHT22;4613;48.392;9.998;2022-10-16T13:03:01;21.50;99.90
9157;DHT22;4613;48.392;9.998;2022-10-16T13:09:17;21.80;99.90
9157;DHT22;4613;48.392;9.998;2022-10-16T13:22:17;21.60;99.90
9157;DHT22;4613;48.392;9.998;2022-10-16T13:28:07;21.30;99.90
9157;DHT22;4613;48.392;9.998;2022-10-16T13:30:59;21.40;99.90
9157;DHT22;4613;48.392;9.998;2022-10-16T13:33:53;21.40;99.90
9157;DHT22;4613;48.392;9.998;2022-10-16T13:36:49;21.20;99.90
9157;DHT22;4613;48.392;9.998;2022-10-16T13:39:39;21.00;99.90
9157;DHT22;4613;48.392;9.998;2022-10-16T13:42:31;21.10;99.90
9157;DHT22;4613;48.392;9.998;2022-10-16T13:45:25;21.00;99.90
9157;DHT22;4613;48.392;9.998;2022-10-16T13:48:14;20.90;99.90
9157;DHT22;4613;48.392;9.998;2022-10-16T13:53:56;20.90;99.90
9157;DHT22;4613;48.392;9.998;2022-10-16T13:56:46;20.90;99.90
9157;DHT22;4613;48.392;9.998;2022-10-16T13:59:37;20.80;99.90
9157;DHT22;4613;48.392;9.998;2022-10-16T14:02:36;20.80;99.90
9157;DHT22;4613;48.392;9.998;2022-10-16T14:05:27;20.80;99.90
9157;DHT22;4613;48.392;9.998;2022-10-16T14:08:16;20.80;99.90
9157;DHT22;4613;48.392;9.998;2022-10-16T14:11:06;20.70;99.90
9157;DHT22;4613;48.392;9.998;2022-10-16T14:13:56;20.70;99.90
9157;DHT22;4613;48.392;9.998;2022-10-16T14:16:46;20.70;99.90
9157;DHT22;4613;48.392;9.998;2022-10-16T14:19:35;20.70;99.90
9157;DHT22;4613;48.392;9.998;2022-10-16T14:22:38;20.80;99.90
9157;DHT22;4613;48.392;9.998;2022-10-16T14:25:31;20.70;99.90
9157;DHT22;4613;48.392;9.998;2022-10-16T14:28:22;20.80;99.90
9157;DHT22;4613;48.392;9.998;2022-10-16T14:31:33;20.90;99.90
9157;DHT22;4613;48.392;9.998;2022-10-16T14:34:34;21.00;99.90
9157;DHT22;4613;48.392;9.998;2022-10-16T14:37:29;21.00;99.90
9157;DHT22;4613;48.392;9.998;2022-10-16T14:40:22;21.10;99.90
9157;DHT22;4613;48.392;9.998;2022-10-16T14:43:38;21.10;99.90
9157;DHT22;4613;48.392;9.998;2022-10-16T14:46:37;20.90;99.90
9157;DHT22;4613;48.392;9.998;2022-10-16T14:49:27;20.90;99.90
9157;DHT22;4613;48.392;9.998;2022-10-16T14:52:17;20.90;99.90
9157;DHT22;4613;48.392;9.998;2022-10-16T14:55:07;20.90;99.90
9157;DHT22;4613;48.392;9.998;2022-10-16T14:57:56;21.00;99.90
9157;DHT22;4613;48.392;9.998;2022-10-16T15:00:47;21.10;99.90
9157;DHT22;4613;48.392;9.998;2022-10-16T15:03:38;21.00;99.90
9157;DHT22;4613;48.392;9.998;2022-10-16T15:06:29;21.10;99.90
9157;DHT22;4613;48.392;9.998;2022-10-16T15:09:18;20.90;99.90
9157;DHT22;4613;48.392;9.998;2022-10-16T15:12:08;20.90;99.90
9157;DHT22;4613;48.392;9.998;2022-10-16T15:14:57;20.90;99.90
9157;DHT22;4613;48.392;9.998;2022-10-16T15:17:46;20.80;99.90
9157;DHT22;4613;48.392;9.998;2022-10-16T15:20:37;20.90;99.90
9157;DHT22;4613;48.392;9.998;2022-10-16T15:23:26;20.80;99.90
9157;DHT22;4613;48.392;9.998;2022-10-16T15:26:16;20.80;99.90
9157;DHT22;4613;48.392;9.998;2022-10-16T15:29:05;20.70;99.90
9157;DHT22;4613;48.392;9.998;2022-10-16T15:31:54;20.80;99.90
9157;DHT22;4613;48.392;9.998;2022-10-16T15:34:44;20.80;99.90
9157;DHT22;4613;48.392;9.998;2022-10-16T15:37:33;20.60;99.90
9157;DHT22;4613;48.392;9.998;2022-10-16T15:40:22;20.70;99.90
9157;DHT22;4613;48.392;9.998;2022-10-16T15:43:12;20.60;99.90
9157;DHT22;4613;48.392;9.998;2022-10-16T15:46:04;20.60;99.90
9157;DHT22;4613;48.392;9.998;2022-10-16T15:48:57;20.60;99.90
9157;DHT22;4613;48.392;9.998;2022-10-16T15:51:46;20.50;99.90
9157;DHT22;4613;48.392;9.998;2022-10-16T15:54:38;20.40;99.90
9157;DHT22;4613;48.392;9.998;2022-10-16T15:57:28;20.30;99.90
9157;DHT22;4613;48.392;9.998;2022-10-16T16:00:19;20.30;99.90
9157;DHT22;4613;48.392;9.998;2022-10-16T16:03:14;20.20;99.90
9157;DHT22;4613;48.392;9.998;2022-10-16T16:06:05;20.20;99.90
9157;DHT22;4613;48.392;9.998;2022-10-16T16:08:55;20.10;99.90
9157;DHT22;4613;48.392;9.998;2022-10-16T16:11:45;20.00;99.90
9157;DHT22;4613;48.392;9.998;2022-10-16T16:14:34;20.00;99.90
9157;DHT22;4613;48.392;9.998;2022-10-16T16:17:24;19.90;99.90
9157;DHT22;4613;48.392;9.998;2022-10-16T16:20:13;19.80;99.90
9157;DHT22;4613;48.392;9.998;2022-10-16T16:23:03;19.70;99.90
9157;DHT22;4613;48.392;9.998;2022-10-16T16:26:11;19.70;99.90
9157;DHT22;4613;48.392;9.998;2022-10-16T16:29:01;19.70;99.90
9157;DHT22;4613;48.392;9.998;2022-10-16T16:31:51;19.60;99.90
9157;DHT22;4613;48.392;9.998;2022-10-16T16:34:46;19.60;99.90
9157;DHT22;4613;48.392;9.998;2022-10-16T16:37:35;19.50;99.90
9157;DHT22;4613;48.392;9.998;2022-10-16T16:40:25;19.30;99.90
9157;DHT22;4613;48.392;9.998;2022-10-16T16:43:15;19.20;99.90
9157;DHT22;4613;48.392;9.998;2022-10-16T16:46:06;19.20;99.90
9157;DHT22;4613;48.392;9.998;2022-10-16T16:48:57;19.10;99.90
9157;DHT22;4613;48.392;9.998;2022-10-16T16:51:47;19.00;99.90
9157;DHT22;4613;48.392;9.998;2022-10-16T16:54:36;19.00;99.90
9157;DHT22;4613;48.392;9.998;2022-10-16T16:57:26;18.90;99.90
9157;DHT22;4613;48.392;9.998;2022-10-16T17:00:15;18.90;99.90
9157;DHT22;4613;48.392;9.998;2022-10-16T17:03:07;18.80;99.90
9157;DHT22;4613;48.392;9.998;2022-10-16T17:06:02;18.80;99.90
9157;DHT22;4613;48.392;9.998;2022-10-16T17:08:51;18.80;99.90
9157;DHT22;4613;48.392;9.998;2022-10-16T17:11:41;18.70;99.90
9157;DHT22;4613;48.392;9.998;2022-10-16T17:14:33;18.70;99.90
9157;DHT22;4613;48.392;9.998;2022-10-16T17:17:22;18.60;99.90
9157;DHT22;4613;48.392;9.998;2022-10-16T17:20:11;18.60;99.90
9157;DHT22;4613;48.392;9.998;2022-10-16T17:23:00;18.60;99.90
9157;DHT22;4613;48.392;9.998;2022-10-16T17:25:50;18.50;99.90
9157;DHT22;4613;48.392;9.998;2022-10-16T17:28:40;18.50;99.90
9157;DHT22;4613;48.392;9.998;2022-10-16T17:31:33;18.50;99.90
9157;DHT22;4613;48.392;9.998;2022-10-16T17:34:23;18.40;99.90
9157;DHT22;4613;48.392;9.998;2022-10-16T17:37:13;18.40;99.90
9157;DHT22;4613;48.392;9.998;2022-10-16T17:40:04;18.40;99.90
9157;DHT22;4613;48.392;9.998;2022-10-16T17:42:54;18.30;99.90
9157;DHT22;4613;48.392;9.998;2022-10-16T17:45:45;18.20;99.90
9157;DHT22;4613;48.392;9.998;2022-10-16T17:48:43;18.20;99.90
9157;DHT22;4613;48.392;9.998;2022-10-16T17:51:33;18.10;99.90
9157;DHT22;4613;48.392;9.998;2022-10-16T17:54:23;18.10;99.90
9157;DHT22;4613;48.392;9.998;2022-10-16T17:57:13;18.00;99.90
9157;DHT22;4613;48.392;9.998;2022-10-16T18:00:04;18.00;99.90
9157;DHT22;4613;48.392;9.998;2022-10-16T18:02:54;17.90;99.90
9157;DHT22;4613;48.392;9.998;2022-10-16T18:05:43;17.90;99.90
9157;DHT22;4613;48.392;9.998;2022-10-16T18:08:33;17.60;99.90
9157;DHT22;4613;48.392;9.998;2022-10-16T18:11:25;17.50;99.90
9157;DHT22;4613;48.392;9.998;2022-10-16T18:14:16;17.50;99.90
9157;DHT22;4613;48.392;9.998;2022-10-16T18:17:07;17.50;99.90
9157;DHT22;4613;48.392;9.998;2022-10-16T18:19:57;17.40;99.90
9157;DHT22;4613;48.392;9.998;2022-10-16T18:22:46;17.40;99.90
9157;DHT22;4613;48.392;9.998;2022-10-16T18:25:36;17.30;99.90
9157;DHT22;4613;48.392;9.998;2022-10-16T18:28:26;17.30;99.90
9157;DHT22;4613;48.392;9.998;2022-10-16T18:31:17;17.10;99.90
9157;DHT22;4613;48.392;9.998;2022-10-16T18:34:06;17.20;99.90
9157;DHT22;4613;48.392;9.998;2022-10-16T18:36:56;17.20;99.90
9157;DHT22;4613;48.392;9.998;2022-10-16T18:39:46;17.20;99.90
9157;DHT22;4613;48.392;9.998;2022-10-16T18:42:39;17.00;99.90
9157;DHT22;4613;48.392;9.998;2022-10-16T18:45:30;16.90;99.90
9157;DHT22;4613;48.392;9.998;2022-10-16T18:48:20;17.00;99.90
9157;DHT22;4613;48.392;9.998;2022-10-16T18:51:22;16.90;99.90
9157;DHT22;4613;48.392;9.998;2022-10-16T18:54:12;16.80;99.90
9157;DHT22;4613;48.392;9.998;2022-10-16T18:57:02;16.80;99.90
9157;DHT22;4613;48.392;9.998;2022-10-16T18:59:51;16.90;99.90
9157;DHT22;4613;48.392;9.998;2022-10-16T19:02:41;16.80;99.90
9157;DHT22;4613;48.392;9.998;2022-10-16T19:05:33;16.70;99.90
9157;DHT22;4613;48.392;9.998;2022-10-16T19:08:22;16.70;99.90
9157;DHT22;4613;48.392;9.998;2022-10-16T19:11:17;16.70;99.90
9157;DHT22;4613;48.392;9.998;2022-10-16T19:14:08;16.80;99.90
9157;DHT22;4613;48.392;9.998;2022-10-16T19:16:59;16.80;99.90
9157;DHT22;4613;48.392;9.998;2022-10-16T19:19:49;16.70;99.90
9157;DHT22;4613;48.392;9.998;2022-10-16T19:22:39;16.70;99.90
9157;DHT22;4613;48.392;9.998;2022-10-16T19:25:44;16.70;99.90
9157;DHT22;4613;48.392;9.998;2022-10-16T19:28:34;16.40;99.90
9157;DHT22;4613;48.392;9.998;2022-10-16T19:31:28;16.20;99.90
9157;DHT22;4613;48.392;9.998;2022-10-16T19:34:18;16.20;99.90
9157;DHT22;4613;48.392;9.998;2022-10-16T19:37:08;16.00;99.90
9157;DHT22;4613;48.392;9.998;2022-10-16T19:39:58;16.10;99.90
9157;DHT22;4613;48.392;9.998;2022-10-16T19:42:48;15.90;99.90
9157;DHT22;4613;48.392;9.998;2022-10-16T19:45:37;16.10;99.90
9157;DHT22;4613;48.392;9.998;2022-10-16T19:48:30;16.10;99.90
9157;DHT22;4613;48.392;9.998;2022-10-16T19:51:24;16.10;99.90
9157;DHT22;4613;48.392;9.998;2022-10-16T19:54:14;16.00;99.90
9157;DHT22;4613;48.392;9.998;2022-10-16T19:57:05;15.90;99.90
9157;DHT22;4613;48.392;9.998;2022-10-16T19:59:55;15.80;99.90